Погода Атлаутлана неделю

Мехико, Мексика

26 февраля-03 марта
  • 26февраля
    Сегодня
    +7°
    +24°
    Ясно и безоблачно
    ВремяПогодаТемператураВлажностьДавлениеВетер, м/сВероятность осадков
    00:00Небольшая облачность+13°C36 %585 мм2.7 м/с2 %
    03:00Ясно и безоблачно+9°C39 %582 мм2.2 м/с2 %
    06:00Ясно и безоблачно+8°C44 %582 мм2.1 м/с2 %
    09:00Ясно и безоблачно+16°C28 %587 мм1.0 м/с2 %
    12:00Ясно и безоблачно+21°C24 %589 мм2.6 м/с2 %
    15:00Ясно и безоблачно+24°C23 %588 мм2.9 м/с2 %
    18:00Ясно и безоблачно+20°C34 %586 мм1.4 м/с2 %
    21:00Ясно и безоблачно+17°C35 %585 мм1.5 м/с2 %
  • 27февраля
    Вторник
    +7°
    +24°
    Ясно и безоблачно
    ВремяПогодаТемператураВлажностьДавлениеВетер, м/сВероятность осадков
    00:00Ясно и безоблачно+14°C41 %584 мм0.9 м/с2 %
    03:00Ясно и безоблачно+9°C46 %580 мм1.5 м/с2 %
    06:00Ясно и безоблачно+9°C46 %581 мм1.5 м/с2 %
    09:00Ясно и безоблачно+16°C27 %586 мм0.2 м/с2 %
    12:00Ясно и безоблачно+21°C21 %587 мм2.8 м/с2 %
    15:00Ясно и безоблачно+23°C21 %586 мм3.1 м/с2 %
    18:00Ясно и безоблачно+21°C39 %585 мм0.9 м/с2 %
    21:00Ясно и безоблачно+18°C41 %584 мм1.2 м/с2 %
  • 28февраля
    Среда
    +6°
    +24°
    Ясно и безоблачно
    ВремяПогодаТемператураВлажностьДавлениеВетер, м/сВероятность осадков
    00:00Ясно и безоблачно+13°C51 %583 мм1.3 м/с2 %
    03:00Ясно и безоблачно+9°C53 %580 мм1.1 м/с2 %
    06:00Ясно и безоблачно+8°C53 %580 мм1.9 м/с2 %
    09:00Ясно и безоблачно+17°C34 %586 мм0.8 м/с2 %
    12:00Ясно и безоблачно+22°C30 %588 мм2.4 м/с11 %
    15:00Ясно и безоблачно+24°C31 %587 мм2.8 м/с33 %
    18:00Ясно и безоблачно+21°C44 %586 мм0.7 м/с29 %
    21:00Ясно и безоблачно+18°C44 %585 мм1.2 м/с7 %
  • 29февраля
    Четверг
    +9°
    +23°
    Практически безоблачно
    ВремяПогодаТемператураВлажностьДавлениеВетер, м/сВероятность осадков
    00:00Ясно и безоблачно+13°C51 %583 мм1.3 м/с2 %
    03:00Ясно и безоблачно+9°C46 %581 мм2.2 м/с2 %
    06:00Ясно и безоблачно+7°C47 %581 мм2.1 м/с2 %
    09:00Ясно и безоблачно+16°C29 %587 мм0.2 м/с2 %
    12:00Практически безоблачно+20°C26 %588 мм3.3 м/с2 %
    15:00Практически безоблачно+23°C23 %587 мм3.7 м/с2 %
    18:00Ясно и безоблачно+21°C30 %586 мм1.7 м/с2 %
    21:00Практически безоблачно+16°C35 %585 мм1.4 м/с2 %
  • 01марта
    Пятница
    +10°
    +23°
    Облачно с прояснениями
    ВремяПогодаТемператураВлажностьДавлениеВетер, м/сВероятность осадков
    00:00Ясно и безоблачно+13°C45 %584 мм0.9 м/с2 %
    03:00Ясно и безоблачно+10°C58 %582 мм0.9 м/с2 %
    06:00Практически безоблачно+10°C60 %582 мм1.0 м/с2 %
    09:00Небольшая облачность+15°C41 %586 мм0.8 м/с2 %
    12:00Практически безоблачно+20°C39 %588 мм2.8 м/с15 %
    15:00Облачно с прояснениями+23°C32 %587 мм3.8 м/с30 %
    18:00Небольшая облачность+21°C36 %586 мм1.8 м/с4 %
    21:00Облачно с прояснениями+17°C45 %586 мм1.9 м/с2 %
Мы используем cookies
Соглашаюсь